sensor_id;sensor_type;location;lat;lon;timestamp;pressure;altitude;pressure_sealevel;temperature;humidity
49835;BME280;35729;52.090;13.162;2023-01-27T00:01:36;101634.84;;;-1.32;99.95
49835;BME280;35729;52.090;13.162;2023-01-27T00:04:05;101635.78;;;-1.29;100.00
49835;BME280;35729;52.090;13.162;2023-01-27T00:06:33;101628.94;;;-1.29;99.93
49835;BME280;35729;52.090;13.162;2023-01-27T00:09:02;101636.66;;;-1.29;99.93
49835;BME280;35729;52.090;13.162;2023-01-27T00:11:30;101635.84;;;-1.28;99.95
49835;BME280;35729;52.090;13.162;2023-01-27T00:14:14;101633.34;;;-1.26;100.00
49835;BME280;35729;52.090;13.162;2023-01-27T00:16:42;101631.66;;;-1.26;100.00
49835;BME280;35729;52.090;13.162;2023-01-27T00:19:11;101630.84;;;-1.25;100.00
49835;BME280;35729;52.090;13.162;2023-01-27T00:21:44;101633.47;;;-1.23;100.00
49835;BME280;35729;52.090;13.162;2023-01-27T00:24:25;101631.72;;;-1.24;99.96
49835;BME280;35729;52.090;13.162;2023-01-27T00:27:08;101632.47;;;-1.27;99.96
49835;BME280;35729;52.090;13.162;2023-01-27T00:29:39;101624.53;;;-1.32;100.00
49835;BME280;35729;52.090;13.162;2023-01-27T00:32:09;101626.38;;;-1.29;99.71
49835;BME280;35729;52.090;13.162;2023-01-27T00:34:50;101614.03;;;-1.38;99.84
49835;BME280;35729;52.090;13.162;2023-01-27T00:37:18;101623.63;;;-1.34;100.00
49835;BME280;35729;52.090;13.162;2023-01-27T00:39:47;101624.50;;;-1.33;100.00
49835;BME280;35729;52.090;13.162;2023-01-27T00:42:15;101629.56;;;-1.35;100.00
49835;BME280;35729;52.090;13.162;2023-01-27T00:44:46;101626.19;;;-1.34;100.00
49835;BME280;35729;52.090;13.162;2023-01-27T00:47:27;101621.97;;;-1.32;100.00
49835;BME280;35729;52.090;13.162;2023-01-27T00:49:55;101628.88;;;-1.31;100.00
49835;BME280;35729;52.090;13.162;2023-01-27T00:52:24;101619.38;;;-1.32;100.00
49835;BME280;35729;52.090;13.162;2023-01-27T00:54:52;101622.97;;;-1.28;100.00
49835;BME280;35729;52.090;13.162;2023-01-27T00:57:21;101623.88;;;-1.27;100.00
49835;BME280;35729;52.090;13.162;2023-01-27T00:59:52;101623.03;;;-1.26;100.00
49835;BME280;35729;52.090;13.162;2023-01-27T01:02:21;101621.31;;;-1.27;100.00
49835;BME280;35729;52.090;13.162;2023-01-27T01:04:49;101626.38;;;-1.29;100.00
49835;BME280;35729;52.090;13.162;2023-01-27T01:07:18;101635.03;;;-1.27;100.00
49835;BME280;35729;52.090;13.162;2023-01-27T01:09:46;101644.38;;;-1.29;100.00
49835;BME280;35729;52.090;13.162;2023-01-27T01:12:15;101632.34;;;-1.30;100.00
49835;BME280;35729;52.090;13.162;2023-01-27T01:14:44;101629.69;;;-1.32;100.00
49835;BME280;35729;52.090;13.162;2023-01-27T01:17:15;101632.22;;;-1.33;100.00
49835;BME280;35729;52.090;13.162;2023-01-27T01:19:43;101632.22;;;-1.33;100.00
49835;BME280;35729;52.090;13.162;2023-01-27T01:22:12;101633.72;;;-1.38;100.00
49835;BME280;35729;52.090;13.162;2023-01-27T01:24:40;101628.81;;;-1.32;100.00
49835;BME280;35729;52.090;13.162;2023-01-27T01:27:09;101637.25;;;-1.36;100.00
49835;BME280;35729;52.090;13.162;2023-01-27T01:29:37;101636.44;;;-1.35;100.00
49835;BME280;35729;52.090;13.162;2023-01-27T01:32:06;101643.22;;;-1.37;100.00
49835;BME280;35729;52.090;13.162;2023-01-27T01:34:38;101642.25;;;-1.39;100.00
49835;BME280;35729;52.090;13.162;2023-01-27T01:37:07;101640.31;;;-1.45;100.00
49835;BME280;35729;52.090;13.162;2023-01-27T01:39:35;101641.13;;;-1.46;100.00
49835;BME280;35729;52.090;13.162;2023-01-27T01:42:04;101647.03;;;-1.49;100.00
49835;BME280;35729;52.090;13.162;2023-01-27T01:44:32;101651.31;;;-1.49;100.00
49835;BME280;35729;52.090;13.162;2023-01-27T01:47:01;101648.66;;;-1.51;100.00
49835;BME280;35729;52.090;13.162;2023-01-27T01:49:33;101650.41;;;-1.50;100.00
49835;BME280;35729;52.090;13.162;2023-01-27T01:52:09;101644.44;;;-1.49;100.00
49835;BME280;35729;52.090;13.162;2023-01-27T01:54:38;101651.38;;;-1.48;100.00
49835;BME280;35729;52.090;13.162;2023-01-27T01:57:11;101648.03;;;-1.45;100.00
49835;BME280;35729;52.090;13.162;2023-01-27T01:59:44;101648.09;;;-1.43;100.00
49835;BME280;35729;52.090;13.162;2023-01-27T02:02:16;101642.13;;;-1.42;100.00
49835;BME280;35729;52.090;13.162;2023-01-27T02:04:51;101639.69;;;-1.39;100.00
49835;BME280;35729;52.090;13.162;2023-01-27T02:07:29;101635.44;;;-1.39;100.00
49835;BME280;35729;52.090;13.162;2023-01-27T02:09:59;101644.91;;;-1.38;100.00
49835;BME280;35729;52.090;13.162;2023-01-27T02:12:28;101647.53;;;-1.36;100.00
49835;BME280;35729;52.090;13.162;2023-01-27T02:14:57;101644.91;;;-1.38;100.00
49835;BME280;35729;52.090;13.162;2023-01-27T02:17:27;101647.41;;;-1.39;100.00
49835;BME280;35729;52.090;13.162;2023-01-27T02:20:00;101647.66;;;-1.33;100.00
49835;BME280;35729;52.090;13.162;2023-01-27T02:22:39;101651.19;;;-1.31;100.00
49835;BME280;35729;52.090;13.162;2023-01-27T02:25:16;101651.19;;;-1.31;100.00
49835;BME280;35729;52.090;13.162;2023-01-27T02:27:49;101652.09;;;-1.29;100.00
49835;BME280;35729;52.090;13.162;2023-01-27T02:30:18;101653.06;;;-1.27;100.00
49835;BME280;35729;52.090;13.162;2023-01-27T02:32:47;101656.59;;;-1.25;100.00
49835;BME280;35729;52.090;13.162;2023-01-27T02:35:19;101657.41;;;-1.26;100.00
49835;BME280;35729;52.090;13.162;2023-01-27T02:37:50;101649.53;;;-1.29;100.00
49835;BME280;35729;52.090;13.162;2023-01-27T02:40:20;101654.78;;;-1.27;100.00
49835;BME280;35729;52.090;13.162;2023-01-27T02:42:52;101651.31;;;-1.28;100.00
49835;BME280;35729;52.090;13.162;2023-01-27T02:45:22;101654.81;;;-1.26;100.00
49835;BME280;35729;52.090;13.162;2023-01-27T02:47:51;101650.53;;;-1.25;100.00
49835;BME280;35729;52.090;13.162;2023-01-27T02:50:19;101656.66;;;-1.23;100.00
49835;BME280;35729;52.090;13.162;2023-01-27T02:52:48;101656.72;;;-1.22;100.00
49835;BME280;35729;52.090;13.162;2023-01-27T02:55:16;101658.41;;;-1.22;100.00
49835;BME280;35729;52.090;13.162;2023-01-27T02:57:45;101656.72;;;-1.22;100.00
49835;BME280;35729;52.090;13.162;2023-01-27T03:00:17;101651.56;;;-1.22;100.00
49835;BME280;35729;52.090;13.162;2023-01-27T03:02:45;101643.84;;;-1.22;100.00
49835;BME280;35729;52.090;13.162;2023-01-27T03:05:14;101650.75;;;-1.21;100.00
49835;BME280;35729;52.090;13.162;2023-01-27T03:07:42;101648.97;;;-1.22;100.00
49835;BME280;35729;52.090;13.162;2023-01-27T03:10:11;101659.34;;;-1.20;100.00
49835;BME280;35729;52.090;13.162;2023-01-27T03:12:39;101653.31;;;-1.21;100.00
49835;BME280;35729;52.090;13.162;2023-01-27T03:15:09;101661.84;;;-1.22;100.00
49835;BME280;35729;52.090;13.162;2023-01-27T03:17:52;101652.50;;;-1.20;100.00
49835;BME280;35729;52.090;13.162;2023-01-27T03:20:33;101665.38;;;-1.20;100.00
49835;BME280;35729;52.090;13.162;2023-01-27T03:23:02;101666.19;;;-1.21;100.00
49835;BME280;35729;52.090;13.162;2023-01-27T03:25:31;101662.00;;;-1.19;100.00
49835;BME280;35729;52.090;13.162;2023-01-27T03:28:00;101664.63;;;-1.17;100.00
49835;BME280;35729;52.090;13.162;2023-01-27T03:30:28;101655.09;;;-1.20;100.00
49835;BME280;35729;52.090;13.162;2023-01-27T03:33:00;101661.34;;;-1.13;100.00
49835;BME280;35729;52.090;13.162;2023-01-27T03:35:30;101673.41;;;-1.12;100.00
49835;BME280;35729;52.090;13.162;2023-01-27T03:38:05;101667.47;;;-1.11;100.00
49835;BME280;35729;52.090;13.162;2023-01-27T03:40:46;101674.44;;;-1.08;100.00
49835;BME280;35729;52.090;13.162;2023-01-27T03:43:27;101672.72;;;-1.08;100.00
49835;BME280;35729;52.090;13.162;2023-01-27T03:46:08;101678.81;;;-1.06;100.00
49835;BME280;35729;52.090;13.162;2023-01-27T03:48:47;101680.59;;;-1.05;100.00
49835;BME280;35729;52.090;13.162;2023-01-27T03:51:17;101680.66;;;-1.03;100.00
49835;BME280;35729;52.090;13.162;2023-01-27T03:53:47;101675.56;;;-1.02;100.00
49835;BME280;35729;52.090;13.162;2023-01-27T03:56:17;101681.66;;;-1.00;100.00
49835;BME280;35729;52.090;13.162;2023-01-27T03:58:54;101676.56;;;-0.98;100.00
49835;BME280;35729;52.090;13.162;2023-01-27T04:01:23;101681.81;;;-0.95;100.00
49835;BME280;35729;52.090;13.162;2023-01-27T04:03:54;101686.97;;;-0.95;100.00
49835;BME280;35729;52.090;13.162;2023-01-27T04:06:37;101680.31;;;-0.90;100.00
49835;BME280;35729;52.090;13.162;2023-01-27T04:09:20;101669.91;;;-0.93;100.00
49835;BME280;35729;52.090;13.162;2023-01-27T04:11:49;101668.13;;;-0.94;100.00
49835;BME280;35729;52.090;13.162;2023-01-27T04:14:22;101671.78;;;-0.89;100.00
49835;BME280;35729;52.090;13.162;2023-01-27T04:16:52;101671.78;;;-0.89;100.00
49835;BME280;35729;52.090;13.162;2023-01-27T04:19:24;101674.44;;;-0.87;100.00
49835;BME280;35729;52.090;13.162;2023-01-27T04:21:53;101661.41;;;-0.90;100.00
49835;BME280;35729;52.090;13.162;2023-01-27T04:24:22;101670.19;;;-0.85;100.00
49835;BME280;35729;52.090;13.162;2023-01-27T04:26:54;101671.91;;;-0.86;100.00
49835;BME280;35729;52.090;13.162;2023-01-27T04:29:24;101665.81;;;-0.88;100.00
49835;BME280;35729;52.090;13.162;2023-01-27T04:31:53;101662.34;;;-0.88;100.00
49835;BME280;35729;52.090;13.162;2023-01-27T04:34:26;101673.72;;;-0.83;100.00
49835;BME280;35729;52.090;13.162;2023-01-27T04:37:01;101667.66;;;-0.84;100.00
49835;BME280;35729;52.090;13.162;2023-01-27T04:39:31;101670.34;;;-0.82;100.00
49835;BME280;35729;52.090;13.162;2023-01-27T04:41:59;101677.31;;;-0.79;100.00
49835;BME280;35729;52.090;13.162;2023-01-27T04:44:35;101679.03;;;-0.78;100.00
49835;BME280;35729;52.090;13.162;2023-01-27T04:47:03;101682.50;;;-0.78;100.00
49835;BME280;35729;52.090;13.162;2023-01-27T04:49:35;101687.72;;;-0.76;100.00
49835;BME280;35729;52.090;13.162;2023-01-27T04:52:03;101680.81;;;-0.77;100.00
49835;BME280;35729;52.090;13.162;2023-01-27T04:54:32;101698.97;;;-0.74;100.00
49835;BME280;35729;52.090;13.162;2023-01-27T04:57:01;101686.09;;;-0.74;100.00
49835;BME280;35729;52.090;13.162;2023-01-27T04:59:30;101681.69;;;-0.77;100.00
49835;BME280;35729;52.090;13.162;2023-01-27T05:01:58;101687.97;;;-0.70;100.00
49835;BME280;35729;52.090;13.162;2023-01-27T05:04:28;101696.56;;;-0.70;100.00
49835;BME280;35729;52.090;13.162;2023-01-27T05:07:00;101702.63;;;-0.69;100.00
49835;BME280;35729;52.090;13.162;2023-01-27T05:09:28;101703.53;;;-0.67;100.00
49835;BME280;35729;52.090;13.162;2023-01-27T05:11:57;101703.53;;;-0.67;100.00
49835;BME280;35729;52.090;13.162;2023-01-27T05:14:25;101702.69;;;-0.68;100.00
49835;BME280;35729;52.090;13.162;2023-01-27T05:16:54;101700.97;;;-0.67;100.00
49835;BME280;35729;52.090;13.162;2023-01-27T05:19:22;101700.16;;;-0.66;100.00
49835;BME280;35729;52.090;13.162;2023-01-27T05:21:51;101701.91;;;-0.65;100.00
49835;BME280;35729;52.090;13.162;2023-01-27T05:24:22;101703.69;;;-0.64;100.00
49835;BME280;35729;52.090;13.162;2023-01-27T05:26:50;101710.59;;;-0.63;100.00
49835;BME280;35729;52.090;13.162;2023-01-27T05:29:19;101714.00;;;-0.64;100.00
49835;BME280;35729;52.090;13.162;2023-01-27T05:31:48;101712.22;;;-0.65;100.00
49835;BME280;35729;52.090;13.162;2023-01-27T05:34:16;101720.91;;;-0.63;100.00
49835;BME280;35729;52.090;13.162;2023-01-27T05:36:45;101720.97;;;-0.61;100.00
49835;BME280;35729;52.090;13.162;2023-01-27T05:39:13;101720.09;;;-0.62;100.00
49835;BME280;35729;52.090;13.162;2023-01-27T05:41:45;101719.19;;;-0.62;100.00
49835;BME280;35729;52.090;13.162;2023-01-27T05:44:13;101717.53;;;-0.62;100.00
49835;BME280;35729;52.090;13.162;2023-01-27T05:46:42;101718.38;;;-0.61;100.00
49835;BME280;35729;52.090;13.162;2023-01-27T05:49:10;101726.16;;;-0.60;100.00
49835;BME280;35729;52.090;13.162;2023-01-27T05:51:39;101720.91;;;-0.63;100.00
49835;BME280;35729;52.090;13.162;2023-01-27T05:54:08;101726.16;;;-0.60;100.00
49835;BME280;35729;52.090;13.162;2023-01-27T05:56:36;101738.31;;;-0.57;100.00
49835;BME280;35729;52.090;13.162;2023-01-27T05:59:09;101742.59;;;-0.58;100.00
49835;BME280;35729;52.090;13.162;2023-01-27T06:01:38;101740.00;;;-0.58;100.00
49835;BME280;35729;52.090;13.162;2023-01-27T06:04:07;101745.97;;;-0.59;100.00
49835;BME280;35729;52.090;13.162;2023-01-27T06:06:36;101752.75;;;-0.61;100.00
49835;BME280;35729;52.090;13.162;2023-01-27T06:09:05;101746.75;;;-0.61;100.00
49835;BME280;35729;52.090;13.162;2023-01-27T06:11:33;101744.91;;;-0.64;100.00
49835;BME280;35729;52.090;13.162;2023-01-27T06:14:02;101754.34;;;-0.64;100.00
49835;BME280;35729;52.090;13.162;2023-01-27T06:16:33;101757.75;;;-0.66;100.00
49835;BME280;35729;52.090;13.162;2023-01-27T06:19:02;101759.44;;;-0.66;100.00
49835;BME280;35729;52.090;13.162;2023-01-27T06:21:30;101762.00;;;-0.66;100.00
49835;BME280;35729;52.090;13.162;2023-01-27T06:23:59;101755.19;;;-0.66;100.00
49835;BME280;35729;52.090;13.162;2023-01-27T06:26:28;101756.91;;;-0.64;100.00
49835;BME280;35729;52.090;13.162;2023-01-27T06:28:57;101758.63;;;-0.65;100.00
49835;BME280;35729;52.090;13.162;2023-01-27T06:31:25;101760.38;;;-0.64;100.00
49835;BME280;35729;52.090;13.162;2023-01-27T06:33:56;101765.53;;;-0.64;100.00
49835;BME280;35729;52.090;13.162;2023-01-27T06:36:25;101758.69;;;-0.63;100.00
49835;BME280;35729;52.090;13.162;2023-01-27T06:38:53;101744.91;;;-0.64;100.00
49835;BME280;35729;52.090;13.162;2023-01-27T06:41:22;101759.63;;;-0.61;100.00
49835;BME280;35729;52.090;13.162;2023-01-27T06:43:50;101755.34;;;-0.61;100.00
49835;BME280;35729;52.090;13.162;2023-01-27T06:46:19;101753.66;;;-0.60;100.00
49835;BME280;35729;52.090;13.162;2023-01-27T06:48:47;101768.38;;;-0.58;100.00
49835;BME280;35729;52.090;13.162;2023-01-27T06:51:18;101757.25;;;-0.57;100.00
49835;BME280;35729;52.090;13.162;2023-01-27T06:53:47;101755.53;;;-0.56;100.00
49835;BME280;35729;52.090;13.162;2023-01-27T06:56:15;101760.75;;;-0.55;100.00
49835;BME280;35729;52.090;13.162;2023-01-27T06:58:44;101766.81;;;-0.54;100.00
49835;BME280;35729;52.090;13.162;2023-01-27T07:01:12;101772.06;;;-0.51;100.00
49835;BME280;35729;52.090;13.162;2023-01-27T07:03:41;101766.91;;;-0.51;100.00
49835;BME280;35729;52.090;13.162;2023-01-27T07:06:10;101771.19;;;-0.52;100.00
49835;BME280;35729;52.090;13.162;2023-01-27T07:08:42;101770.28;;;-0.52;100.00
49835;BME280;35729;52.090;13.162;2023-01-27T07:11:11;101766.09;;;-0.50;100.00
49835;BME280;35729;52.090;13.162;2023-01-27T07:13:40;101771.25;;;-0.50;100.00
49835;BME280;35729;52.090;13.162;2023-01-27T07:16:08;101771.25;;;-0.50;100.00
49835;BME280;35729;52.090;13.162;2023-01-27T07:18:37;101776.47;;;-0.48;100.00
49835;BME280;35729;52.090;13.162;2023-01-27T07:21:06;101787.69;;;-0.48;100.00
49835;BME280;35729;52.090;13.162;2023-01-27T07:23:34;101782.44;;;-0.50;100.00
49835;BME280;35729;52.090;13.162;2023-01-27T07:26:06;101787.59;;;-0.50;100.00
49835;BME280;35729;52.090;13.162;2023-01-27T07:28:34;101790.13;;;-0.51;100.00
49835;BME280;35729;52.090;13.162;2023-01-27T07:31:03;101790.06;;;-0.53;100.00
49835;BME280;35729;52.090;13.162;2023-01-27T07:33:31;101786.66;;;-0.52;100.00
49835;BME280;35729;52.090;13.162;2023-01-27T07:36:01;101788.34;;;-0.52;100.00
49835;BME280;35729;52.090;13.162;2023-01-27T07:38:30;101788.34;;;-0.52;100.00
49835;BME280;35729;52.090;13.162;2023-01-27T07:41:05;101791.88;;;-0.50;100.00
49835;BME280;35729;52.090;13.162;2023-01-27T07:43:34;101788.50;;;-0.49;100.00
49835;BME280;35729;52.090;13.162;2023-01-27T07:46:02;101791.94;;;-0.48;100.00
49835;BME280;35729;52.090;13.162;2023-01-27T07:48:31;101801.44;;;-0.47;100.00
49835;BME280;35729;52.090;13.162;2023-01-27T07:50:59;101800.63;;;-0.46;100.00
49835;BME280;35729;52.090;13.162;2023-01-27T07:53:28;101804.06;;;-0.46;100.00
49835;BME280;35729;52.090;13.162;2023-01-27T07:55:58;101804.06;;;-0.46;100.00
49835;BME280;35729;52.090;13.162;2023-01-27T07:58:29;101804.97;;;-0.45;100.00
49835;BME280;35729;52.090;13.162;2023-01-27T08:00:57;101806.66;;;-0.46;100.00
49835;BME280;35729;52.090;13.162;2023-01-27T08:03:26;101804.88;;;-0.47;100.00
49835;BME280;35729;52.090;13.162;2023-01-27T08:05:55;101811.75;;;-0.47;100.00
49835;BME280;35729;52.090;13.162;2023-01-27T08:08:24;101810.03;;;-0.47;100.00
49835;BME280;35729;52.090;13.162;2023-01-27T08:10:52;101810.94;;;-0.46;100.00
49835;BME280;35729;52.090;13.162;2023-01-27T08:13:21;101811.81;;;-0.46;100.00
49835;BME280;35729;52.090;13.162;2023-01-27T08:15:56;101811.81;;;-0.46;100.00
49835;BME280;35729;52.090;13.162;2023-01-27T08:18:26;101820.44;;;-0.45;100.00
49835;BME280;35729;52.090;13.162;2023-01-27T08:20:58;101814.53;;;-0.43;100.00
49835;BME280;35729;52.090;13.162;2023-01-27T08:23:27;101808.47;;;-0.43;100.00
49835;BME280;35729;52.090;13.162;2023-01-27T08:25:58;101816.41;;;-0.39;100.00
49835;BME280;35729;52.090;13.162;2023-01-27T08:28:28;101821.75;;;-0.34;100.00
49835;BME280;35729;52.090;13.162;2023-01-27T08:31:06;101818.31;;;-0.33;100.00
49835;BME280;35729;52.090;13.162;2023-01-27T08:33:35;101819.22;;;-0.32;100.00
49835;BME280;35729;52.090;13.162;2023-01-27T08:36:06;101815.00;;;-0.30;100.00
49835;BME280;35729;52.090;13.162;2023-01-27T08:38:35;101819.38;;;-0.28;100.00
49835;BME280;35729;52.090;13.162;2023-01-27T08:41:05;101817.72;;;-0.27;100.00
49835;BME280;35729;52.090;13.162;2023-01-27T08:43:34;101829.03;;;-0.24;100.00
49835;BME280;35729;52.090;13.162;2023-01-27T08:46:05;101825.66;;;-0.23;100.00
49835;BME280;35729;52.090;13.162;2023-01-27T08:48:35;101823.97;;;-0.21;100.00
49835;BME280;35729;52.090;13.162;2023-01-27T08:51:05;101825.75;;;-0.20;100.00
49835;BME280;35729;52.090;13.162;2023-01-27T08:53:34;101818.97;;;-0.18;100.00
49835;BME280;35729;52.090;13.162;2023-01-27T08:56:06;101817.34;;;-0.14;100.00
49835;BME280;35729;52.090;13.162;2023-01-27T08:58:35;101822.66;;;-0.11;100.00
49835;BME280;35729;52.090;13.162;2023-01-27T09:01:07;101816.75;;;-0.08;100.00
49835;BME280;35729;52.090;13.162;2023-01-27T09:03:36;101821.19;;;-0.04;100.00
49835;BME280;35729;52.090;13.162;2023-01-27T09:06:07;101829.06;;;-0.01;100.00
49835;BME280;35729;52.090;13.162;2023-01-27T09:08:35;101825.66;;;0.00;100.00
49835;BME280;35729;52.090;13.162;2023-01-27T09:11:08;101832.75;;;0.06;100.00
49835;BME280;35729;52.090;13.162;2023-01-27T09:13:37;101841.56;;;0.11;100.00
49835;BME280;35729;52.090;13.162;2023-01-27T09:16:09;101829.47;;;0.10;100.00
49835;BME280;35729;52.090;13.162;2023-01-27T09:18:37;101835.88;;;0.20;100.00
49835;BME280;35729;52.090;13.162;2023-01-27T09:21:06;101837.75;;;0.24;100.00
49835;BME280;35729;52.090;13.162;2023-01-27T09:23:35;101840.44;;;0.27;100.00
49835;BME280;35729;52.090;13.162;2023-01-27T09:26:04;101837.97;;;0.30;100.00
49835;BME280;35729;52.090;13.162;2023-01-27T09:28:32;101838.97;;;0.34;100.00
49835;BME280;35729;52.090;13.162;2023-01-27T09:31:09;101846.00;;;0.38;100.00
49835;BME280;35729;52.090;13.162;2023-01-27T09:33:38;101837.50;;;0.40;100.00
49835;BME280;35729;52.090;13.162;2023-01-27T09:36:09;101843.59;;;0.42;100.00
49835;BME280;35729;52.090;13.162;2023-01-27T09:38:43;101841.97;;;0.44;100.00
49835;BME280;35729;52.090;13.162;2023-01-27T09:41:49;101848.00;;;0.45;100.00
49835;BME280;35729;52.090;13.162;2023-01-27T09:47:42;101849.00;;;0.48;100.00
49835;BME280;35729;52.090;13.162;2023-01-27T09:50:29;101851.63;;;0.50;100.00
49835;BME280;35729;52.090;13.162;2023-01-27T09:53:19;101846.59;;;0.53;100.00
49835;BME280;35729;52.090;13.162;2023-01-27T09:55:57;101849.19;;;0.53;100.00
49835;BME280;35729;52.090;13.162;2023-01-27T09:58:37;101845.88;;;0.57;100.00
49835;BME280;35729;52.090;13.162;2023-01-27T10:01:15;101847.69;;;0.60;100.00
49835;BME280;35729;52.090;13.162;2023-01-27T10:03:59;101844.41;;;0.64;100.00
49835;BME280;35729;52.090;13.162;2023-01-27T10:06:45;101849.75;;;0.69;100.00
49835;BME280;35729;52.090;13.162;2023-01-27T10:09:37;101853.31;;;0.72;100.00
49835;BME280;35729;52.090;13.162;2023-01-27T10:12:20;101850.88;;;0.77;100.00
49835;BME280;35729;52.090;13.162;2023-01-27T10:14:56;101853.66;;;0.81;100.00
49835;BME280;35729;52.090;13.162;2023-01-27T10:17:36;101846.84;;;0.84;100.00
49835;BME280;35729;52.090;13.162;2023-01-27T10:20:19;101850.34;;;0.86;100.00
49835;BME280;35729;52.090;13.162;2023-01-27T10:23:02;101852.09;;;0.87;100.00
49835;BME280;35729;52.090;13.162;2023-01-27T10:25:43;101858.13;;;0.87;100.00
49835;BME280;35729;52.090;13.162;2023-01-27T10:28:19;101862.56;;;0.90;100.00
49835;BME280;35729;52.090;13.162;2023-01-27T10:30:58;101859.13;;;0.91;100.00
49835;BME280;35729;52.090;13.162;2023-01-27T10:33:39;101862.56;;;0.90;100.00
49835;BME280;35729;52.090;13.162;2023-01-27T10:36:16;101865.97;;;0.89;100.00
49835;BME280;35729;52.090;13.162;2023-01-27T10:38:58;101865.97;;;0.89;100.00
49835;BME280;35729;52.090;13.162;2023-01-27T10:41:35;101864.31;;;0.91;100.00
49835;BME280;35729;52.090;13.162;2023-01-27T10:44:39;101866.06;;;0.92;100.00
49835;BME280;35729;52.090;13.162;2023-01-27T10:47:18;101869.69;;;0.97;100.00
49835;BME280;35729;52.090;13.162;2023-01-27T10:49:52;101876.75;;;1.01;100.00
49835;BME280;35729;52.090;13.162;2023-01-27T10:52:26;101870.81;;;1.04;100.00
49835;BME280;35729;52.090;13.162;2023-01-27T10:54:59;101876.13;;;1.08;100.00
49835;BME280;35729;52.090;13.162;2023-01-27T10:57:32;101874.50;;;1.10;100.00
49835;BME280;35729;52.090;13.162;2023-01-27T11:00:04;101872.00;;;1.13;100.00
49835;BME280;35729;52.090;13.162;2023-01-27T11:02:38;101865.28;;;1.19;100.00
49835;BME280;35729;52.090;13.162;2023-01-27T11:05:14;101865.41;;;1.22;100.00
49835;BME280;35729;52.090;13.162;2023-01-27T11:07:51;101871.56;;;1.25;100.00
49835;BME280;35729;52.090;13.162;2023-01-27T11:10:29;101867.38;;;1.29;100.00
49835;BME280;35729;52.090;13.162;2023-01-27T11:13:02;101866.69;;;1.35;100.00
49835;BME280;35729;52.090;13.162;2023-01-27T11:15:33;101860.75;;;1.37;100.00
49835;BME280;35729;52.090;13.162;2023-01-27T11:18:07;101865.31;;;1.44;100.00
49835;BME280;35729;52.090;13.162;2023-01-27T11:20:39;101861.13;;;1.48;100.00
49835;BME280;35729;52.090;13.162;2023-01-27T11:23:16;101859.56;;;1.53;100.00
49835;BME280;35729;52.090;13.162;2023-01-27T11:25:48;101863.19;;;1.58;100.00
49835;BME280;35729;52.090;13.162;2023-01-27T11:28:27;101859.03;;;1.63;100.00
49835;BME280;35729;52.090;13.162;2023-01-27T11:31:03;101861.78;;;1.68;100.00
49835;BME280;35729;52.090;13.162;2023-01-27T11:33:44;101863.69;;;1.74;100.00
49835;BME280;35729;52.090;13.162;2023-01-27T11:36:16;101850.00;;;1.78;100.00
49835;BME280;35729;52.090;13.162;2023-01-27T11:38:48;101851.88;;;1.82;100.00
49835;BME280;35729;52.090;13.162;2023-01-27T11:41:16;101845.16;;;1.87;100.00
49835;BME280;35729;52.090;13.162;2023-01-27T11:43:45;101846.16;;;1.92;100.00
49835;BME280;35729;52.090;13.162;2023-01-27T11:46:17;101838.50;;;1.95;100.00
49835;BME280;35729;52.090;13.162;2023-01-27T11:48:50;101845.47;;;1.98;100.00
49835;BME280;35729;52.090;13.162;2023-01-27T11:51:22;101839.50;;;2.01;100.00
49835;BME280;35729;52.090;13.162;2023-01-27T11:53:58;101846.47;;;2.03;100.00
49835;BME280;35729;52.090;13.162;2023-01-27T11:56:31;101838.78;;;2.05;100.00
49835;BME280;35729;52.090;13.162;2023-01-27T11:59:03;101843.19;;;2.07;100.00
49835;BME280;35729;52.090;13.162;2023-01-27T12:01:41;101839.81;;;2.10;100.00
49835;BME280;35729;52.090;13.162;2023-01-27T12:04:17;101839.03;;;2.13;100.00
49835;BME280;35729;52.090;13.162;2023-01-27T12:06:50;101832.16;;;2.15;100.00
49835;BME280;35729;52.090;13.162;2023-01-27T12:09:34;101835.75;;;2.20;100.00
49835;BME280;35729;52.090;13.162;2023-01-27T12:12:25;101838.50;;;2.24;100.00
49835;BME280;35729;52.090;13.162;2023-01-27T12:14:55;101829.13;;;2.28;100.00
49835;BME280;35729;52.090;13.162;2023-01-27T12:17:28;101825.72;;;2.29;100.00
49835;BME280;35729;52.090;13.162;2023-01-27T12:19:58;101828.38;;;2.32;100.00
49835;BME280;35729;52.090;13.162;2023-01-27T12:22:32;101830.19;;;2.35;100.00
49835;BME280;35729;52.090;13.162;2023-01-27T12:25:05;101825.00;;;2.35;100.00
49835;BME280;35729;52.090;13.162;2023-01-27T12:27:39;101827.69;;;2.38;100.00
49835;BME280;35729;52.090;13.162;2023-01-27T12:30:20;101826.84;;;2.39;100.00
49835;BME280;35729;52.090;13.162;2023-01-27T12:32:50;101826.00;;;2.40;100.00
49835;BME280;35729;52.090;13.162;2023-01-27T12:35:20;101828.66;;;2.41;100.00
49835;BME280;35729;52.090;13.162;2023-01-27T12:37:54;101826.97;;;2.43;100.00
49835;BME280;35729;52.090;13.162;2023-01-27T12:40:32;101830.50;;;2.46;100.00
49835;BME280;35729;52.090;13.162;2023-01-27T12:43:12;101829.69;;;2.47;100.00
49835;BME280;35729;52.090;13.162;2023-01-27T12:45:42;101829.72;;;2.48;100.00
49835;BME280;35729;52.090;13.162;2023-01-27T12:48:16;101827.00;;;2.45;100.00
49835;BME280;35729;52.090;13.162;2023-01-27T12:50:54;101824.56;;;2.50;100.00
49835;BME280;35729;52.090;13.162;2023-01-27T12:53:23;101819.38;;;2.50;100.00
49835;BME280;35729;52.090;13.162;2023-01-27T12:55:59;101823.75;;;2.51;100.00
49835;BME280;35729;52.090;13.162;2023-01-27T12:58:31;101828.97;;;2.52;100.00
49835;BME280;35729;52.090;13.162;2023-01-27T13:01:03;101822.94;;;2.53;100.00